sensor_id;sensor_type;location;lat;lon;timestamp;P1;durP1;ratioP1;P2;durP2;ratioP2
15408;SDS011;7803;48.130;13.788;2023-03-21T00:02:32;8.88;;;7.75;;
15408;SDS011;7803;48.130;13.788;2023-03-21T00:05:38;8.52;;;7.63;;
15408;SDS011;7803;48.130;13.788;2023-03-21T00:08:40;8.18;;;7.38;;
15408;SDS011;7803;48.130;13.788;2023-03-21T00:11:43;8.52;;;7.72;;
15408;SDS011;7803;48.130;13.788;2023-03-21T00:14:46;8.77;;;7.90;;
15408;SDS011;7803;48.130;13.788;2023-03-21T00:17:49;8.80;;;7.90;;
15408;SDS011;7803;48.130;13.788;2023-03-21T00:20:56;8.85;;;8.02;;
15408;SDS011;7803;48.130;13.788;2023-03-21T00:23:59;8.48;;;7.68;;
15408;SDS011;7803;48.130;13.788;2023-03-21T00:27:01;8.70;;;7.80;;
15408;SDS011;7803;48.130;13.788;2023-03-21T00:30:03;8.32;;;7.53;;
15408;SDS011;7803;48.130;13.788;2023-03-21T00:33:07;8.63;;;7.80;;
15408;SDS011;7803;48.130;13.788;2023-03-21T00:36:10;8.48;;;7.68;;
15408;SDS011;7803;48.130;13.788;2023-03-21T00:39:13;8.60;;;7.80;;
15408;SDS011;7803;48.130;13.788;2023-03-21T00:42:15;8.80;;;8.00;;
15408;SDS011;7803;48.130;13.788;2023-03-21T00:45:17;8.82;;;7.93;;
15408;SDS011;7803;48.130;13.788;2023-03-21T00:48:22;8.82;;;7.93;;
15408;SDS011;7803;48.130;13.788;2023-03-21T00:51:24;8.45;;;7.43;;
15408;SDS011;7803;48.130;13.788;2023-03-21T00:54:26;8.52;;;7.72;;
15408;SDS011;7803;48.130;13.788;2023-03-21T00:57:28;8.95;;;8.05;;
15408;SDS011;7803;48.130;13.788;2023-03-21T01:00:30;9.18;;;8.27;;
15408;SDS011;7803;48.130;13.788;2023-03-21T01:03:37;8.52;;;7.72;;
15408;SDS011;7803;48.130;13.788;2023-03-21T01:06:49;9.20;;;8.27;;
15408;SDS011;7803;48.130;13.788;2023-03-21T01:09:52;8.68;;;7.88;;
15408;SDS011;7803;48.130;13.788;2023-03-21T01:12:54;9.07;;;8.18;;
15408;SDS011;7803;48.130;13.788;2023-03-21T01:15:56;9.52;;;8.50;;
15408;SDS011;7803;48.130;13.788;2023-03-21T01:19:00;9.15;;;8.18;;
15408;SDS011;7803;48.130;13.788;2023-03-21T01:22:02;9.07;;;8.10;;
15408;SDS011;7803;48.130;13.788;2023-03-21T01:25:05;8.45;;;7.65;;
15408;SDS011;7803;48.130;13.788;2023-03-21T01:28:07;8.75;;;7.95;;
15408;SDS011;7803;48.130;13.788;2023-03-21T01:31:10;9.27;;;8.38;;
15408;SDS011;7803;48.130;13.788;2023-03-21T01:34:15;9.00;;;8.10;;
15408;SDS011;7803;48.130;13.788;2023-03-21T01:37:17;8.93;;;8.10;;
15408;SDS011;7803;48.130;13.788;2023-03-21T01:40:20;8.40;;;7.60;;
15408;SDS011;7803;48.130;13.788;2023-03-21T01:43:24;8.80;;;7.90;;
15408;SDS011;7803;48.130;13.788;2023-03-21T01:46:33;8.25;;;7.45;;
15408;SDS011;7803;48.130;13.788;2023-03-21T01:49:40;9.00;;;8.10;;
15408;SDS011;7803;48.130;13.788;2023-03-21T01:52:45;10.10;;;8.38;;
15408;SDS011;7803;48.130;13.788;2023-03-21T01:55:49;8.80;;;8.00;;
15408;SDS011;7803;48.130;13.788;2023-03-21T01:58:51;8.32;;;7.53;;
15408;SDS011;7803;48.130;13.788;2023-03-21T02:01:56;8.30;;;7.50;;
15408;SDS011;7803;48.130;13.788;2023-03-21T02:05:07;7.90;;;7.20;;
15408;SDS011;7803;48.130;13.788;2023-03-21T02:08:09;8.30;;;7.50;;
15408;SDS011;7803;48.130;13.788;2023-03-21T02:11:12;7.90;;;7.20;;
15408;SDS011;7803;48.130;13.788;2023-03-21T02:14:15;8.55;;;7.75;;
15408;SDS011;7803;48.130;13.788;2023-03-21T02:17:19;8.00;;;7.20;;
15408;SDS011;7803;48.130;13.788;2023-03-21T02:20:36;8.30;;;7.50;;
15408;SDS011;7803;48.130;13.788;2023-03-21T02:24:10;8.52;;;7.70;;
15408;SDS011;7803;48.130;13.788;2023-03-21T02:27:27;7.70;;;7.00;;
15408;SDS011;7803;48.130;13.788;2023-03-21T02:34:00;8.40;;;7.60;;
15408;SDS011;7803;48.130;13.788;2023-03-21T02:37:39;8.10;;;7.30;;
15408;SDS011;7803;48.130;13.788;2023-03-21T02:40:47;7.95;;;7.18;;
15408;SDS011;7803;48.130;13.788;2023-03-21T02:43:54;7.72;;;7.03;;
15408;SDS011;7803;48.130;13.788;2023-03-21T02:47:02;7.70;;;7.00;;
15408;SDS011;7803;48.130;13.788;2023-03-21T02:50:09;7.40;;;6.70;;
15408;SDS011;7803;48.130;13.788;2023-03-21T02:53:18;8.65;;;7.80;;
15408;SDS011;7803;48.130;13.788;2023-03-21T02:56:22;7.30;;;6.60;;
15408;SDS011;7803;48.130;13.788;2023-03-21T02:59:25;7.55;;;6.85;;
15408;SDS011;7803;48.130;13.788;2023-03-21T03:02:29;7.78;;;7.07;;
15408;SDS011;7803;48.130;13.788;2023-03-21T03:05:33;7.47;;;6.78;;
15408;SDS011;7803;48.130;13.788;2023-03-21T03:08:42;7.80;;;7.07;;
15408;SDS011;7803;48.130;13.788;2023-03-21T03:11:57;6.95;;;6.30;;
15408;SDS011;7803;48.130;13.788;2023-03-21T03:15:08;7.47;;;6.78;;
15408;SDS011;7803;48.130;13.788;2023-03-21T03:18:18;7.25;;;6.55;;
15408;SDS011;7803;48.130;13.788;2023-03-21T03:21:28;6.85;;;6.20;;
15408;SDS011;7803;48.130;13.788;2023-03-21T03:24:35;7.15;;;6.55;;
15408;SDS011;7803;48.130;13.788;2023-03-21T03:27:43;7.15;;;6.45;;
15408;SDS011;7803;48.130;13.788;2023-03-21T03:30:47;7.63;;;6.75;;
15408;SDS011;7803;48.130;13.788;2023-03-21T03:33:51;7.03;;;6.32;;
15408;SDS011;7803;48.130;13.788;2023-03-21T03:36:56;6.72;;;6.13;;
15408;SDS011;7803;48.130;13.788;2023-03-21T03:40:06;6.15;;;5.65;;
15408;SDS011;7803;48.130;13.788;2023-03-21T03:43:12;6.70;;;6.10;;
15408;SDS011;7803;48.130;13.788;2023-03-21T03:46:21;6.88;;;6.28;;
15408;SDS011;7803;48.130;13.788;2023-03-21T03:49:30;8.38;;;6.35;;
15408;SDS011;7803;48.130;13.788;2023-03-21T03:52:37;6.32;;;5.72;;
15408;SDS011;7803;48.130;13.788;2023-03-21T03:55:44;6.63;;;6.03;;
15408;SDS011;7803;48.130;13.788;2023-03-21T03:58:48;7.38;;;6.63;;
15408;SDS011;7803;48.130;13.788;2023-03-21T04:01:50;6.53;;;5.93;;
15408;SDS011;7803;48.130;13.788;2023-03-21T04:04:52;6.50;;;5.90;;
15408;SDS011;7803;48.130;13.788;2023-03-21T04:07:56;6.22;;;5.63;;
15408;SDS011;7803;48.130;13.788;2023-03-21T04:11:01;6.10;;;5.60;;
15408;SDS011;7803;48.130;13.788;2023-03-21T04:14:03;6.32;;;5.72;;
15408;SDS011;7803;48.130;13.788;2023-03-21T04:17:05;6.18;;;5.60;;
15408;SDS011;7803;48.130;13.788;2023-03-21T04:20:08;6.30;;;5.70;;
15408;SDS011;7803;48.130;13.788;2023-03-21T04:23:11;6.20;;;5.60;;
15408;SDS011;7803;48.130;13.788;2023-03-21T04:26:14;5.60;;;5.10;;
15408;SDS011;7803;48.130;13.788;2023-03-21T04:29:16;6.10;;;5.50;;
15408;SDS011;7803;48.130;13.788;2023-03-21T04:32:19;6.03;;;5.43;;
15408;SDS011;7803;48.130;13.788;2023-03-21T04:35:24;5.78;;;5.28;;
15408;SDS011;7803;48.130;13.788;2023-03-21T04:38:27;5.88;;;5.38;;
15408;SDS011;7803;48.130;13.788;2023-03-21T04:41:31;6.22;;;5.50;;
15408;SDS011;7803;48.130;13.788;2023-03-21T04:44:33;5.50;;;5.00;;
15408;SDS011;7803;48.130;13.788;2023-03-21T04:47:35;5.70;;;5.20;;
15408;SDS011;7803;48.130;13.788;2023-03-21T04:50:37;5.47;;;4.97;;
15408;SDS011;7803;48.130;13.788;2023-03-21T04:53:39;5.57;;;5.07;;
15408;SDS011;7803;48.130;13.788;2023-03-21T04:56:45;5.13;;;4.65;;
15408;SDS011;7803;48.130;13.788;2023-03-21T04:59:47;5.00;;;4.60;;
15408;SDS011;7803;48.130;13.788;2023-03-21T05:02:49;5.18;;;4.68;;
15408;SDS011;7803;48.130;13.788;2023-03-21T05:05:51;5.40;;;4.90;;
15408;SDS011;7803;48.130;13.788;2023-03-21T05:08:54;5.28;;;4.78;;
15408;SDS011;7803;48.130;13.788;2023-03-21T05:12:00;4.50;;;4.10;;
15408;SDS011;7803;48.130;13.788;2023-03-21T05:15:02;5.05;;;4.55;;
15408;SDS011;7803;48.130;13.788;2023-03-21T05:18:05;5.07;;;4.60;;
15408;SDS011;7803;48.130;13.788;2023-03-21T05:21:11;5.20;;;4.70;;
15408;SDS011;7803;48.130;13.788;2023-03-21T05:24:17;4.85;;;4.45;;
15408;SDS011;7803;48.130;13.788;2023-03-21T05:27:22;4.50;;;4.10;;
15408;SDS011;7803;48.130;13.788;2023-03-21T05:30:36;4.40;;;4.00;;
15408;SDS011;7803;48.130;13.788;2023-03-21T05:33:38;4.60;;;4.20;;
15408;SDS011;7803;48.130;13.788;2023-03-21T05:36:40;4.70;;;4.30;;
15408;SDS011;7803;48.130;13.788;2023-03-21T05:39:42;4.63;;;4.22;;
15408;SDS011;7803;48.130;13.788;2023-03-21T05:42:46;4.43;;;4.05;;
15408;SDS011;7803;48.130;13.788;2023-03-21T05:45:48;4.97;;;4.47;;
15408;SDS011;7803;48.130;13.788;2023-03-21T05:48:50;4.25;;;3.85;;
15408;SDS011;7803;48.130;13.788;2023-03-21T05:51:52;4.25;;;3.85;;
15408;SDS011;7803;48.130;13.788;2023-03-21T05:54:54;4.65;;;4.25;;
15408;SDS011;7803;48.130;13.788;2023-03-21T05:57:58;4.18;;;3.78;;
15408;SDS011;7803;48.130;13.788;2023-03-21T06:01:00;4.65;;;4.25;;
15408;SDS011;7803;48.130;13.788;2023-03-21T06:04:02;3.90;;;3.60;;
15408;SDS011;7803;48.130;13.788;2023-03-21T06:07:04;4.88;;;4.05;;
15408;SDS011;7803;48.130;13.788;2023-03-21T06:10:06;4.25;;;3.85;;
15408;SDS011;7803;48.130;13.788;2023-03-21T06:13:11;4.15;;;3.75;;
15408;SDS011;7803;48.130;13.788;2023-03-21T06:16:13;4.15;;;3.75;;
15408;SDS011;7803;48.130;13.788;2023-03-21T06:19:15;4.15;;;3.75;;
15408;SDS011;7803;48.130;13.788;2023-03-21T06:22:17;4.25;;;3.85;;
15408;SDS011;7803;48.130;13.788;2023-03-21T06:25:19;5.75;;;4.28;;
15408;SDS011;7803;48.130;13.788;2023-03-21T06:28:23;3.83;;;3.53;;
15408;SDS011;7803;48.130;13.788;2023-03-21T06:31:25;3.72;;;3.42;;
15408;SDS011;7803;48.130;13.788;2023-03-21T06:34:27;3.90;;;3.50;;
15408;SDS011;7803;48.130;13.788;2023-03-21T06:37:30;5.50;;;3.75;;
15408;SDS011;7803;48.130;13.788;2023-03-21T06:40:32;3.63;;;3.33;;
15408;SDS011;7803;48.130;13.788;2023-03-21T06:43:35;3.72;;;3.33;;
15408;SDS011;7803;48.130;13.788;2023-03-21T06:46:37;4.35;;;3.33;;
15408;SDS011;7803;48.130;13.788;2023-03-21T06:49:39;3.72;;;3.35;;
15408;SDS011;7803;48.130;13.788;2023-03-21T06:52:42;4.35;;;3.67;;
15408;SDS011;7803;48.130;13.788;2023-03-21T06:55:47;3.60;;;3.30;;
15408;SDS011;7803;48.130;13.788;2023-03-21T06:58:51;3.15;;;2.88;;
15408;SDS011;7803;48.130;13.788;2023-03-21T07:01:53;3.35;;;3.05;;
15408;SDS011;7803;48.130;13.788;2023-03-21T07:04:55;3.80;;;3.20;;
15408;SDS011;7803;48.130;13.788;2023-03-21T07:07:57;3.15;;;2.90;;
15408;SDS011;7803;48.130;13.788;2023-03-21T07:11:00;2.88;;;2.60;;
15408;SDS011;7803;48.130;13.788;2023-03-21T07:14:03;2.90;;;2.60;;
15408;SDS011;7803;48.130;13.788;2023-03-21T07:17:05;3.00;;;2.70;;
15408;SDS011;7803;48.130;13.788;2023-03-21T07:20:08;2.63;;;2.42;;
15408;SDS011;7803;48.130;13.788;2023-03-21T07:23:11;3.05;;;2.75;;
15408;SDS011;7803;48.130;13.788;2023-03-21T07:26:13;3.42;;;2.53;;
15408;SDS011;7803;48.130;13.788;2023-03-21T07:29:18;2.90;;;2.60;;
15408;SDS011;7803;48.130;13.788;2023-03-21T07:32:22;2.95;;;2.60;;
15408;SDS011;7803;48.130;13.788;2023-03-21T07:35:28;2.50;;;2.30;;
15408;SDS011;7803;48.130;13.788;2023-03-21T07:38:30;2.90;;;2.35;;
15408;SDS011;7803;48.130;13.788;2023-03-21T07:41:33;2.47;;;2.20;;
15408;SDS011;7803;48.130;13.788;2023-03-21T07:44:36;3.05;;;2.40;;
15408;SDS011;7803;48.130;13.788;2023-03-21T07:47:38;2.35;;;2.03;;
15408;SDS011;7803;48.130;13.788;2023-03-21T07:50:40;2.90;;;2.22;;
15408;SDS011;7803;48.130;13.788;2023-03-21T07:53:42;2.30;;;2.05;;
15408;SDS011;7803;48.130;13.788;2023-03-21T07:56:47;2.90;;;2.38;;
15408;SDS011;7803;48.130;13.788;2023-03-21T07:59:51;2.47;;;2.28;;
15408;SDS011;7803;48.130;13.788;2023-03-21T08:02:54;2.40;;;2.20;;
15408;SDS011;7803;48.130;13.788;2023-03-21T08:05:57;2.65;;;2.20;;
15408;SDS011;7803;48.130;13.788;2023-03-21T08:09:00;2.17;;;1.98;;
15408;SDS011;7803;48.130;13.788;2023-03-21T08:12:03;2.72;;;2.13;;
15408;SDS011;7803;48.130;13.788;2023-03-21T08:15:09;2.42;;;2.22;;
15408;SDS011;7803;48.130;13.788;2023-03-21T08:18:11;2.38;;;2.17;;
15408;SDS011;7803;48.130;13.788;2023-03-21T08:21:13;2.45;;;2.20;;
15408;SDS011;7803;48.130;13.788;2023-03-21T08:24:16;2.75;;;2.35;;
15408;SDS011;7803;48.130;13.788;2023-03-21T08:31:25;2.95;;;1.90;;
15408;SDS011;7803;48.130;13.788;2023-03-21T08:34:28;2.20;;;2.00;;
15408;SDS011;7803;48.130;13.788;2023-03-21T08:37:30;2.47;;;2.05;;
15408;SDS011;7803;48.130;13.788;2023-03-21T08:40:33;4.00;;;2.33;;
15408;SDS011;7803;48.130;13.788;2023-03-21T08:43:36;3.67;;;2.53;;
15408;SDS011;7803;48.130;13.788;2023-03-21T08:46:39;3.08;;;2.63;;
15408;SDS011;7803;48.130;13.788;2023-03-21T08:49:41;2.88;;;2.30;;
15408;SDS011;7803;48.130;13.788;2023-03-21T08:52:44;3.58;;;2.50;;
15408;SDS011;7803;48.130;13.788;2023-03-21T08:55:47;3.10;;;2.47;;
15408;SDS011;7803;48.130;13.788;2023-03-21T08:58:49;3.13;;;2.50;;
15408;SDS011;7803;48.130;13.788;2023-03-21T09:01:53;3.55;;;2.30;;
15408;SDS011;7803;48.130;13.788;2023-03-21T09:04:55;2.40;;;2.20;;
15408;SDS011;7803;48.130;13.788;2023-03-21T09:07:58;2.30;;;2.10;;
15408;SDS011;7803;48.130;13.788;2023-03-21T09:11:00;2.47;;;2.13;;
15408;SDS011;7803;48.130;13.788;2023-03-21T09:14:03;2.65;;;2.20;;
15408;SDS011;7803;48.130;13.788;2023-03-21T09:17:07;2.35;;;2.15;;
15408;SDS011;7803;48.130;13.788;2023-03-21T09:20:10;2.80;;;2.00;;
15408;SDS011;7803;48.130;13.788;2023-03-21T09:23:17;2.58;;;2.25;;
15408;SDS011;7803;48.130;13.788;2023-03-21T09:26:20;2.65;;;2.30;;
15408;SDS011;7803;48.130;13.788;2023-03-21T09:29:23;2.53;;;2.33;;
15408;SDS011;7803;48.130;13.788;2023-03-21T09:32:27;2.33;;;2.13;;
15408;SDS011;7803;48.130;13.788;2023-03-21T09:35:29;3.30;;;2.08;;
15408;SDS011;7803;48.130;13.788;2023-03-21T09:38:31;2.10;;;2.00;;
15408;SDS011;7803;48.130;13.788;2023-03-21T09:41:42;2.40;;;2.20;;
15408;SDS011;7803;48.130;13.788;2023-03-21T09:44:58;2.40;;;2.10;;
15408;SDS011;7803;48.130;13.788;2023-03-21T09:48:11;3.63;;;2.50;;
15408;SDS011;7803;48.130;13.788;2023-03-21T09:51:30;2.60;;;2.17;;
15408;SDS011;7803;48.130;13.788;2023-03-21T09:54:37;2.88;;;2.10;;
15408;SDS011;7803;48.130;13.788;2023-03-21T09:57:42;2.83;;;2.10;;
15408;SDS011;7803;48.130;13.788;2023-03-21T10:00:48;2.35;;;2.00;;
15408;SDS011;7803;48.130;13.788;2023-03-21T10:03:54;2.53;;;2.00;;
15408;SDS011;7803;48.130;13.788;2023-03-21T10:06:59;2.72;;;2.00;;
15408;SDS011;7803;48.130;13.788;2023-03-21T10:10:03;3.03;;;2.20;;
15408;SDS011;7803;48.130;13.788;2023-03-21T10:13:09;2.10;;;1.90;;
15408;SDS011;7803;48.130;13.788;2023-03-21T10:16:16;1.80;;;1.70;;
15408;SDS011;7803;48.130;13.788;2023-03-21T10:19:25;2.25;;;1.90;;
15408;SDS011;7803;48.130;13.788;2023-03-21T10:22:28;2.95;;;2.75;;
15408;SDS011;7803;48.130;13.788;2023-03-21T10:25:31;2.53;;;2.30;;
15408;SDS011;7803;48.130;13.788;2023-03-21T10:28:36;2.88;;;2.58;;
15408;SDS011;7803;48.130;13.788;2023-03-21T10:31:41;2.30;;;2.10;;
15408;SDS011;7803;48.130;13.788;2023-03-21T10:34:47;3.40;;;2.50;;
15408;SDS011;7803;48.130;13.788;2023-03-21T10:37:52;2.35;;;1.98;;
15408;SDS011;7803;48.130;13.788;2023-03-21T10:40:54;2.30;;;2.05;;
15408;SDS011;7803;48.130;13.788;2023-03-21T10:44:06;2.20;;;2.00;;
15408;SDS011;7803;48.130;13.788;2023-03-21T10:47:14;2.20;;;2.00;;
15408;SDS011;7803;48.130;13.788;2023-03-21T10:50:22;2.35;;;1.95;;
15408;SDS011;7803;48.130;13.788;2023-03-21T10:53:31;2.95;;;2.22;;
15408;SDS011;7803;48.130;13.788;2023-03-21T10:56:36;2.20;;;2.00;;
15408;SDS011;7803;48.130;13.788;2023-03-21T10:59:44;2.70;;;1.75;;
15408;SDS011;7803;48.130;13.788;2023-03-21T11:02:52;1.83;;;1.70;;
15408;SDS011;7803;48.130;13.788;2023-03-21T11:06:04;2.38;;;1.80;;
15408;SDS011;7803;48.130;13.788;2023-03-21T11:09:11;1.88;;;1.70;;
15408;SDS011;7803;48.130;13.788;2023-03-21T11:12:16;1.70;;;1.60;;
15408;SDS011;7803;48.130;13.788;2023-03-21T11:15:27;1.92;;;1.70;;
15408;SDS011;7803;48.130;13.788;2023-03-21T11:18:30;3.17;;;2.25;;
15408;SDS011;7803;48.130;13.788;2023-03-21T11:21:35;2.05;;;1.83;;
15408;SDS011;7803;48.130;13.788;2023-03-21T11:24:38;2.35;;;1.70;;
15408;SDS011;7803;48.130;13.788;2023-03-21T11:27:46;2.72;;;1.80;;
15408;SDS011;7803;48.130;13.788;2023-03-21T11:30:49;5.65;;;2.58;;
15408;SDS011;7803;48.130;13.788;2023-03-21T11:33:54;4.30;;;1.92;;
15408;SDS011;7803;48.130;13.788;2023-03-21T11:37:00;3.30;;;1.70;;
15408;SDS011;7803;48.130;13.788;2023-03-21T11:40:12;2.08;;;1.77;;
15408;SDS011;7803;48.130;13.788;2023-03-21T11:43:25;2.45;;;1.75;;
15408;SDS011;7803;48.130;13.788;2023-03-21T11:46:29;1.88;;;1.30;;
15408;SDS011;7803;48.130;13.788;2023-03-21T11:49:32;1.98;;;1.70;;
15408;SDS011;7803;48.130;13.788;2023-03-21T11:52:37;1.90;;;1.70;;
15408;SDS011;7803;48.130;13.788;2023-03-21T11:55:46;1.98;;;1.73;;
15408;SDS011;7803;48.130;13.788;2023-03-21T12:02:54;5.90;;;1.95;;
15408;SDS011;7803;48.130;13.788;2023-03-21T12:06:18;2.33;;;1.67;;
15408;SDS011;7803;48.130;13.788;2023-03-21T12:09:31;1.95;;;1.73;;
15408;SDS011;7803;48.130;13.788;2023-03-21T12:12:39;2.25;;;1.60;;
15408;SDS011;7803;48.130;13.788;2023-03-21T12:15:48;3.90;;;1.70;;
15408;SDS011;7803;48.130;13.788;2023-03-21T12:19:00;2.42;;;1.60;;
15408;SDS011;7803;48.130;13.788;2023-03-21T12:22:22;2.53;;;1.60;;
15408;SDS011;7803;48.130;13.788;2023-03-21T12:25:32;2.95;;;1.80;;
15408;SDS011;7803;48.130;13.788;2023-03-21T12:28:41;1.83;;;1.60;;
15408;SDS011;7803;48.130;13.788;2023-03-21T12:31:59;1.73;;;1.50;;
15408;SDS011;7803;48.130;13.788;2023-03-21T12:35:09;2.25;;;1.60;;
15408;SDS011;7803;48.130;13.788;2023-03-21T12:38:22;2.42;;;1.70;;
15408;SDS011;7803;48.130;13.788;2023-03-21T12:41:32;1.95;;;1.40;;
15408;SDS011;7803;48.130;13.788;2023-03-21T12:44:39;1.70;;;1.48;;
15408;SDS011;7803;48.130;13.788;2023-03-21T12:47:45;1.85;;;1.58;;
15408;SDS011;7803;48.130;13.788;2023-03-21T12:50:52;2.33;;;1.45;;
15408;SDS011;7803;48.130;13.788;2023-03-21T12:53:58;1.85;;;1.50;;
15408;SDS011;7803;48.130;13.788;2023-03-21T12:57:07;1.70;;;1.60;;
15408;SDS011;7803;48.130;13.788;2023-03-21T13:00:15;1.63;;;1.52;;
15408;SDS011;7803;48.130;13.788;2023-03-21T13:03:21;1.75;;;1.30;;
15408;SDS011;7803;48.130;13.788;2023-03-21T13:06:29;2.00;;;1.80;;
15408;SDS011;7803;48.130;13.788;2023-03-21T13:09:33;2.13;;;1.50;;
15408;SDS011;7803;48.130;13.788;2023-03-21T13:12:42;2.05;;;1.70;;
15408;SDS011;7803;48.130;13.788;2023-03-21T13:15:50;1.85;;;1.60;;
15408;SDS011;7803;48.130;13.788;2023-03-21T13:18:58;1.90;;;1.65;;
15408;SDS011;7803;48.130;13.788;2023-03-21T13:22:06;1.95;;;1.50;;
15408;SDS011;7803;48.130;13.788;2023-03-21T13:25:15;1.60;;;1.40;;
15408;SDS011;7803;48.130;13.788;2023-03-21T13:28:21;1.70;;;1.38;;
15408;SDS011;7803;48.130;13.788;2023-03-21T13:31:27;1.63;;;1.42;;
15408;SDS011;7803;48.130;13.788;2023-03-21T13:34:30;1.40;;;1.30;;
15408;SDS011;7803;48.130;13.788;2023-03-21T13:37:33;2.75;;;1.50;;
15408;SDS011;7803;48.130;13.788;2023-03-21T13:40:39;1.40;;;1.30;;
15408;SDS011;7803;48.130;13.788;2023-03-21T13:43:50;1.77;;;1.40;;
15408;SDS011;7803;48.130;13.788;2023-03-21T13:46:54;2.00;;;1.50;;
15408;SDS011;7803;48.130;13.788;2023-03-21T13:50:13;1.50;;;1.40;;
15408;SDS011;7803;48.130;13.788;2023-03-21T13:53:29;1.95;;;1.50;;
15408;SDS011;7803;48.130;13.788;2023-03-21T13:56:46;1.60;;;1.48;;
15408;SDS011;7803;48.130;13.788;2023-03-21T13:59:51;2.20;;;1.30;;
15408;SDS011;7803;48.130;13.788;2023-03-21T14:03:22;1.45;;;1.30;;
15408;SDS011;7803;48.130;13.788;2023-03-21T14:06:25;1.50;;;1.40;;
15408;SDS011;7803;48.130;13.788;2023-03-21T14:09:34;1.48;;;1.38;;
15408;SDS011;7803;48.130;13.788;2023-03-21T14:12:39;1.45;;;1.30;;
15408;SDS011;7803;48.130;13.788;2023-03-21T14:15:46;1.65;;;1.50;;
15408;SDS011;7803;48.130;13.788;2023-03-21T14:18:53;2.55;;;1.38;;
15408;SDS011;7803;48.130;13.788;2023-03-21T14:21:56;1.30;;;1.20;;
15408;SDS011;7803;48.130;13.788;2023-03-21T14:25:00;1.45;;;1.30;;
15408;SDS011;7803;48.130;13.788;2023-03-21T14:28:03;1.40;;;1.30;;
15408;SDS011;7803;48.130;13.788;2023-03-21T14:31:12;2.10;;;1.55;;
15408;SDS011;7803;48.130;13.788;2023-03-21T14:34:16;1.30;;;1.20;;
15408;SDS011;7803;48.130;13.788;2023-03-21T14:37:29;1.65;;;1.27;;
15408;SDS011;7803;48.130;13.788;2023-03-21T14:40:33;1.63;;;1.50;;
15408;SDS011;7803;48.130;13.788;2023-03-21T14:43:36;1.95;;;1.55;;
15408;SDS011;7803;48.130;13.788;2023-03-21T14:46:39;1.48;;;1.30;;
15408;SDS011;7803;48.130;13.788;2023-03-21T14:49:41;1.30;;;1.20;;
15408;SDS011;7803;48.130;13.788;2023-03-21T14:52:44;1.40;;;1.30;;
15408;SDS011;7803;48.130;13.788;2023-03-21T14:55:48;1.50;;;1.40;;
15408;SDS011;7803;48.130;13.788;2023-03-21T14:58:54;3.05;;;1.73;;
15408;SDS011;7803;48.130;13.788;2023-03-21T15:01:58;1.70;;;1.45;;
15408;SDS011;7803;48.130;13.788;2023-03-21T15:05:06;2.63;;;1.38;;
15408;SDS011;7803;48.130;13.788;2023-03-21T15:08:12;1.30;;;1.20;;
15408;SDS011;7803;48.130;13.788;2023-03-21T15:11:17;1.48;;;1.20;;
15408;SDS011;7803;48.130;13.788;2023-03-21T15:14:20;1.73;;;1.30;;
15408;SDS011;7803;48.130;13.788;2023-03-21T15:17:27;4.20;;;2.35;;
15408;SDS011;7803;48.130;13.788;2023-03-21T15:20:30;1.27;;;1.17;;
15408;SDS011;7803;48.130;13.788;2023-03-21T15:23:35;1.50;;;1.40;;
15408;SDS011;7803;48.130;13.788;2023-03-21T15:26:42;1.38;;;1.23;;
15408;SDS011;7803;48.130;13.788;2023-03-21T15:29:45;1.38;;;1.20;;
15408;SDS011;7803;48.130;13.788;2023-03-21T15:32:51;1.33;;;1.23;;
15408;SDS011;7803;48.130;13.788;2023-03-21T15:35:54;1.45;;;1.10;;
15408;SDS011;7803;48.130;13.788;2023-03-21T15:38:59;2.00;;;1.70;;
15408;SDS011;7803;48.130;13.788;2023-03-21T15:42:03;1.40;;;1.30;;
15408;SDS011;7803;48.130;13.788;2023-03-21T15:45:12;1.30;;;1.20;;
15408;SDS011;7803;48.130;13.788;2023-03-21T15:48:21;1.42;;;1.33;;
15408;SDS011;7803;48.130;13.788;2023-03-21T15:51:26;1.40;;;1.30;;
15408;SDS011;7803;48.130;13.788;2023-03-21T15:54:29;1.42;;;1.20;;
15408;SDS011;7803;48.130;13.788;2023-03-21T15:57:32;1.30;;;1.20;;
15408;SDS011;7803;48.130;13.788;2023-03-21T16:00:40;1.45;;;1.35;;
15408;SDS011;7803;48.130;13.788;2023-03-21T16:03:46;1.50;;;1.40;;
15408;SDS011;7803;48.130;13.788;2023-03-21T16:06:50;1.38;;;1.27;;
15408;SDS011;7803;48.130;13.788;2023-03-21T16:09:56;1.52;;;1.33;;
15408;SDS011;7803;48.130;13.788;2023-03-21T16:12:59;1.38;;;1.27;;
15408;SDS011;7803;48.130;13.788;2023-03-21T16:16:02;1.40;;;1.30;;
15408;SDS011;7803;48.130;13.788;2023-03-21T16:19:06;1.40;;;1.20;;
15408;SDS011;7803;48.130;13.788;2023-03-21T16:22:08;1.40;;;1.30;;
15408;SDS011;7803;48.130;13.788;2023-03-21T16:25:11;1.77;;;1.50;;
15408;SDS011;7803;48.130;13.788;2023-03-21T16:28:13;1.45;;;1.35;;
15408;SDS011;7803;48.130;13.788;2023-03-21T16:31:18;1.40;;;1.30;;
15408;SDS011;7803;48.130;13.788;2023-03-21T16:34:23;1.30;;;1.20;;
15408;SDS011;7803;48.130;13.788;2023-03-21T16:37:27;1.30;;;1.20;;
15408;SDS011;7803;48.130;13.788;2023-03-21T16:40:30;1.30;;;1.20;;
15408;SDS011;7803;48.130;13.788;2023-03-21T16:43:35;4.13;;;2.30;;
15408;SDS011;7803;48.130;13.788;2023-03-21T16:46:41;1.75;;;1.45;;
15408;SDS011;7803;48.130;13.788;2023-03-21T16:49:45;1.48;;;1.35;;
15408;SDS011;7803;48.130;13.788;2023-03-21T16:52:48;1.40;;;1.27;;
15408;SDS011;7803;48.130;13.788;2023-03-21T16:55:50;1.30;;;1.20;;
15408;SDS011;7803;48.130;13.788;2023-03-21T16:58:53;1.73;;;1.40;;
15408;SDS011;7803;48.130;13.788;2023-03-21T17:01:56;2.30;;;1.60;;
15408;SDS011;7803;48.130;13.788;2023-03-21T17:05:00;1.50;;;1.30;;
15408;SDS011;7803;48.130;13.788;2023-03-21T17:08:03;1.30;;;1.20;;
15408;SDS011;7803;48.130;13.788;2023-03-21T17:11:07;1.50;;;1.40;;
15408;SDS011;7803;48.130;13.788;2023-03-21T17:14:12;1.35;;;1.20;;
15408;SDS011;7803;48.130;13.788;2023-03-21T17:17:15;1.58;;;1.30;;
15408;SDS011;7803;48.130;13.788;2023-03-21T17:20:20;1.42;;;1.27;;
15408;SDS011;7803;48.130;13.788;2023-03-21T17:23:24;1.67;;;1.42;;
15408;SDS011;7803;48.130;13.788;2023-03-21T17:26:27;1.33;;;1.23;;
15408;SDS011;7803;48.130;13.788;2023-03-21T17:29:29;1.50;;;1.40;;
15408;SDS011;7803;48.130;13.788;2023-03-21T17:32:32;2.13;;;1.50;;
15408;SDS011;7803;48.130;13.788;2023-03-21T17:35:36;2.03;;;1.60;;
15408;SDS011;7803;48.130;13.788;2023-03-21T17:38:38;1.35;;;1.25;;
15408;SDS011;7803;48.130;13.788;2023-03-21T17:41:40;2.08;;;1.55;;
15408;SDS011;7803;48.130;13.788;2023-03-21T17:44:44;1.45;;;1.35;;
15408;SDS011;7803;48.130;13.788;2023-03-21T17:47:47;1.73;;;1.52;;
15408;SDS011;7803;48.130;13.788;2023-03-21T17:50:50;1.92;;;1.40;;
15408;SDS011;7803;48.130;13.788;2023-03-21T17:53:52;1.70;;;1.60;;
15408;SDS011;7803;48.130;13.788;2023-03-21T17:56:55;1.73;;;1.63;;
15408;SDS011;7803;48.130;13.788;2023-03-21T17:59:57;1.98;;;1.77;;
15408;SDS011;7803;48.130;13.788;2023-03-21T18:02:59;3.85;;;1.95;;
15408;SDS011;7803;48.130;13.788;2023-03-21T18:06:03;1.92;;;1.73;;
15408;SDS011;7803;48.130;13.788;2023-03-21T18:09:07;3.05;;;2.38;;
15408;SDS011;7803;48.130;13.788;2023-03-21T18:12:10;2.15;;;1.90;;
15408;SDS011;7803;48.130;13.788;2023-03-21T18:15:14;2.00;;;1.80;;
15408;SDS011;7803;48.130;13.788;2023-03-21T18:18:17;2.10;;;1.85;;
15408;SDS011;7803;48.130;13.788;2023-03-21T18:21:24;2.63;;;1.95;;
15408;SDS011;7803;48.130;13.788;2023-03-21T18:24:26;2.28;;;1.77;;
15408;SDS011;7803;48.130;13.788;2023-03-21T18:27:29;3.45;;;2.00;;
15408;SDS011;7803;48.130;13.788;2023-03-21T18:30:33;2.20;;;2.00;;
15408;SDS011;7803;48.130;13.788;2023-03-21T18:33:37;3.55;;;2.10;;
15408;SDS011;7803;48.130;13.788;2023-03-21T18:36:42;4.72;;;1.83;;
15408;SDS011;7803;48.130;13.788;2023-03-21T18:39:45;6.90;;;2.22;;
15408;SDS011;7803;48.130;13.788;2023-03-21T18:42:49;4.32;;;2.20;;
15408;SDS011;7803;48.130;13.788;2023-03-21T18:45:51;4.13;;;2.70;;
15408;SDS011;7803;48.130;13.788;2023-03-21T18:48:55;3.85;;;2.10;;